Monday, December 17, 2018, 4:56 AM EST
Back to Local

KPHF, Williamsburg International Airport

Location: Newport News, VA, United States Lat: 37.133
Local Time: 4:56 AM EST ( 9:56 GMT) Lon: -76.5
Time Zone: US/Eastern Elev: 42 ft

Show me the last for .
Show Decoded

2018-12-17 03:54 METAR KPHF 170854Z AUTO 28005KT 10SM CLR 05/03 A2993 RMK AO2 SLP135 T00500028
                 58001 =
2018-12-17 02:54 METAR KPHF 170754Z AUTO 28006KT 10SM SCT039 06/03 A2993 RMK AO2 SLP135 T00560033
                 =
2018-12-17 01:54 METAR KPHF 170654Z AUTO 29006KT 10SM OVC040 07/03 A2994 RMK AO2 SLP137 T00670033
                 =
2018-12-17 00:54 METAR KPHF 170554Z AUTO 32005KT 10SM OVC037 07/03 A2993 RMK AO2 SLP135 T00720033
                 10083 20061 58001 =
2018-12-16 23:54 METAR KPHF 170454Z AUTO 31007KT 10SM OVC037 07/03 A2994 RMK AO2 SLP136 T00670033
                 401220061 =
2018-12-16 22:54 METAR KPHF 170354Z AUTO 34008G16KT 10SM BKN034 07/03 A2993 RMK AO2 SLP134
                 T00720033 =
2018-12-16 21:54 METAR KPHF 170254Z 31007KT 10SM FEW070 07/04 A2993 RMK AO2 SLP135 T00670039
                 51015 =
2018-12-16 20:54 METAR KPHF 170154Z 33007KT 10SM OVC065 07/04 A2992 RMK AO2 SLP132 T00720044 =
2018-12-16 20:05 METAR KPHF 170105Z 31008KT 10SM SCT014 OVC070 07/05 A2991 RMK AO2 T00720050 =
2018-12-16 19:54 METAR KPHF 170054Z 31009KT 10SM BKN014 OVC075 07/05 A2990 RMK AO2 SLP127
                 T00720050 =
2018-12-16 19:01 METAR KPHF 170001Z 30006KT 10SM OVC014 08/06 A2989 RMK AO2 T00830061 =
2018-12-16 18:54 METAR KPHF 162354Z 31006KT 10SM OVC016 08/06 A2989 RMK AO2 SLP120 60000
                 T00830056 10111 20083 51025 =
2018-12-16 18:09 METAR KPHF 162309Z 30008KT 10SM BKN019 BKN030 OVC039 09/06 A2987 RMK AO2
                 T00890061 =
2018-12-16 17:54 METAR KPHF 162254Z 29011G18KT 10SM FEW015 BKN030 OVC090 09/06 A2986 RMK AO2
                 SLP112 T00890061 =
2018-12-16 17:29 METAR KPHF 162229Z 30010KT 10SM FEW013 BKN032 OVC041 09/06 A2985 RMK AO2
                 T00890061 =
2018-12-16 17:22 METAR KPHF 162222Z 30012KT 10SM SCT013 BKN019 OVC040 09/06 A2985 RMK AO2
                 T00890061 =
2018-12-16 16:54 METAR KPHF 162154Z 28008KT 10SM BKN014 OVC020 09/07 A2984 RMK AO2 SLP104
                 T00940072 =
2018-12-16 16:34 METAR KPHF 162134Z 29008KT 10SM BKN013 OVC020 09/07 A2983 RMK AO2 T00940072 =
2018-12-16 15:54 METAR KPHF 162054Z 29011G17KT 10SM BKN009 OVC016 09/07 A2982 RMK AO2 CIG 008V012
                 SLP096 60000 T00940072 53008 =
2018-12-16 15:40 METAR KPHF 162040Z 29011G17KT 10SM OVC009 09/08 A2982 RMK AO2 CIG 008V014
                 T00940078 $ =
2018-12-16 15:29 METAR KPHF 162029Z 30013G18KT 10SM BKN010 OVC017 09/08 A2982 RMK AO2 CIG 008V012
                 T00940078 $ =
2018-12-16 14:54 METAR KPHF 161954Z 29011KT 10SM FEW012 BKN018 OVC029 10/08 A2981 RMK AO2
                 RAB1857E06 SLP093 P0000 T01000078 $ =
2018-12-16 14:40 METAR KPHF 161940Z 29012G19KT 10SM BKN016 BKN021 OVC029 10/08 A2981 RMK AO2
                 RAB1857E06 P0000 T01000078 $ =
2018-12-16 14:32 METAR KPHF 161932Z 28013G17KT 10SM FEW009 OVC014 10/08 A2980 RMK AO2 RAB1857E06
                 P0000 T01000078 $ =
2018-12-16 13:54 METAR KPHF 161854Z 27011KT 10SM OVC014 10/08 A2979 RMK AO2 RAE07 SLP087 P0000
                 T01000083 $ =
2018-12-16 13:07 METAR KPHF 161807Z 26010KT 3SM BR BKN009 OVC029 11/08 A2979 RMK AO2 RAE07 P0000
                 T01060078 $ =
2018-12-16 12:54 METAR KPHF 161754Z 25013KT 10SM -RA FEW018 OVC027 11/07 A2979 RMK AO2 RAB52
                 SLP088 P0000 60000 T01110072 10122 20083 56022 $ =
2018-12-16 12:36 METAR KPHF 161736Z 24010KT 10SM SCT016 BKN025 OVC035 12/08 A2979 RMK AO2
                 T01170083 $ =
2018-12-16 12:07 METAR KPHF 161707Z 27010KT 10SM FEW028 BKN039 12/09 A2980 RMK AO2 T01170089 $ =
2018-12-16 11:54 METAR KPHF 161654Z 26008KT 10SM FEW013 BKN027 OVC038 11/08 A2981 RMK AO2
                 RAB31E41 SLP092 P0000 T01060083 $ =
2018-12-16 11:31 METAR KPHF 161631Z 29010KT 7SM -RA BKN009 OVC026 11/08 A2982 RMK AO2 RAB31 P0000
                 T01060083 $ =
2018-12-16 11:01 METAR KPHF 161601Z 24008KT 9SM FEW011 BKN015 OVC050 11/09 A2983 RMK AO2
                 T01060089 $ =
2018-12-16 10:54 METAR KPHF 161554Z 23007KT 8SM BKN009 BKN015 OVC050 11/09 A2984 RMK AO2 SLP102
                 T01060089 $ =
2018-12-16 10:51 METAR KPHF 161551Z 25007KT 8SM BKN009 BKN015 OVC050 11/09 A2984 RMK AO2 $ =
2018-12-16 10:41 METAR KPHF 161541Z 25006KT 7SM FEW009 BKN038 OVC050 11/09 A2984 RMK AO2
                 T01060089 $ =
2018-12-16 10:22 METAR KPHF 161522Z 24006KT 8SM BKN009 BKN027 OVC050 11/09 A2985 RMK AO2 CIG
                 008V012 T01060089 $ =
2018-12-16 10:13 METAR KPHF 161513Z 24005KT 9SM BKN010 OVC055 11/09 A2985 RMK AO2 T01060089 $ =
2018-12-16 09:54 METAR KPHF 161454Z 23008KT 9SM FEW010 FEW018 OVC055 11/09 A2986 RMK AO2 SLP110
                 T01060089 57004 $ =
2018-12-16 09:37 METAR KPHF 161437Z 25008KT 8SM SCT008 SCT021 OVC055 11/09 A2987 RMK AO2
                 T01060089 $ =
2018-12-16 09:10 METAR KPHF 161410Z 23008KT 9SM BKN009 OVC055 10/09 A2986 RMK AO2 T01000089 $ =
2018-12-16 08:54 METAR KPHF 161354Z 20009KT 10SM SCT009 SCT012 BKN055 11/09 A2986 RMK AO2 SLP111
                 T01060089 $ =
2018-12-16 08:44 METAR KPHF 161344Z 20006KT 10SM FEW008 SCT012 BKN055 10/09 A2986 RMK AO2
                 T01000089 $ =
2018-12-16 08:09 METAR KPHF 161309Z 20004KT 8SM BKN011 09/08 A2986 RMK AO2 T00940083 $ =
2018-12-16 07:54 METAR KPHF 161254Z 21006KT 7SM FEW013 FEW050 08/07 A2987 RMK AO2 SLP113
                 T00830072 $ =
2018-12-16 07:35 METAR KPHF 161235Z 22005KT 8SM FEW011 BKN050 09/08 A2986 RMK AO2 T00890078 $ =
2018-12-16 06:54 METAR KPHF 161154Z 22007KT 10SM OVC010 09/08 A2987 RMK AO2 SLP114 70011
                 T00940083 10111 20078 55005 $ =
2018-12-16 06:15 METAR KPHF 161115Z 23004KT 10SM BKN010 08/07 A2986 RMK AO2 T00830072 $ =
2018-12-16 05:54 METAR KPHF 161054Z 23007KT 10SM FEW012 09/08 A2987 RMK AO2 SLP112 T00890078 $ =
2018-12-16 05:34 METAR KPHF 161034Z AUTO 10SM SCT013 09/08 A2987 RMK AO2 T00890078 $ =

Support USWX by starting your Amazon purchase here.